aviador You're here:

EINN Decoded Metar

SHANNON in IRELAND
Report Time2017-11-22 05:00:00
UTC Time2017-11-22 05:24:24
Flight Rules ifr IFR
Wind050° at 13 kt
W.Decomp.*RWY 06: 13.0 kt HW 1.1 kt LCW
W.Rank050° ranks 34
Current wind is above 050° avg. (5.3)
Visibility3500 m
Phenomena:Rain
Clouds:Few 003 Hf
Broken 013 Hf
Overcast 030 Hf
Expected CloudBase > 400 ft AGL from Temp-Dew spread
Ceiling1,300 ft
Temp11°C (ISA -4)
Dew Point10°C (94% RH)
AAT6.4°C
QNH0987 hPa
Density Alt663 ft
Elevation66 ft
Report Wrong Elevation
Raw Report
METAR EINN 220500Z 05013KT 3500 RA FEW003 BKN013 OVC030 11/10 Q0987
NOSIG=

Extra information for EINN:More info

Metar Taf Metar & Taf Last 4 Metars F.Rules Stats Wind Profile Meteogram Temp Stats Airport Information Weather charts Add Link Nearby VenuesMetar ALERT Operation Metar Decoded Social comments